Time;durP1;ratioP1;P1;durP2;ratioP2;P2;SDS_P1;SDS_P2;PMS_P1;PMS_P2;Temp;Humidity;BMP_temperature;BMP_pressure;BME280_temperature;BME280_humidity;BME280_pressure;Samples;Min_cycle;Max_cycle;Signal;HPM_P1;HPM_P2
2023/08/24 00:00:45;;;;;;;3.83;2.88;;;28.70;70.30;;;;;;5065203;28;20074;-56
2023/08/24 00:03:11;;;;;;;3.30;2.97;;;28.60;70.20;;;;;;5065742;28;20112;-55
2023/08/24 00:05:40;;;;;;;6.80;3.65;;;28.60;70.30;;;;;;5064017;28;20025;-56
2023/08/24 00:08:06;;;;;;;4.18;3.05;;;28.60;70.40;;;;;;5047959;28;20084;-57
2023/08/24 00:10:31;;;;;;;3.90;2.80;;;28.60;70.50;;;;;;5065145;28;20041;-56
2023/08/24 00:12:57;;;;;;;4.30;3.15;;;28.60;70.50;;;;;;5047103;28;20041;-56
2023/08/24 00:15:23;;;;;;;7.78;3.30;;;28.50;70.60;;;;;;5064982;28;20025;-56
2023/08/24 00:17:48;;;;;;;5.38;3.33;;;28.50;70.60;;;;;;5064464;28;20052;-56
2023/08/24 00:20:14;;;;;;;6.30;2.83;;;28.50;70.60;;;;;;5048119;28;20024;-56
2023/08/24 00:22:39;;;;;;;3.78;2.95;;;28.50;70.80;;;;;;5064258;28;20017;-56
2023/08/24 00:25:07;;;;;;;4.85;2.90;;;28.40;70.90;;;;;;5061586;28;20108;-56
2023/08/24 00:27:32;;;;;;;5.97;3.05;;;28.40;70.90;;;;;;5063476;28;20036;-56
2023/08/24 00:29:58;;;;;;;4.50;2.97;;;28.40;71.00;;;;;;5064400;28;20056;-56
2023/08/24 00:32:23;;;;;;;5.70;3.03;;;28.30;71.00;;;;;;5065256;28;20089;-56
2023/08/24 00:34:49;;;;;;;5.55;3.13;;;28.30;71.10;;;;;;5065554;28;20048;-56
2023/08/24 00:37:14;;;;;;;6.97;3.13;;;28.30;71.30;;;;;;5048242;28;20025;-56
2023/08/24 00:39:40;;;;;;;5.35;3.53;;;28.30;71.40;;;;;;5065363;28;20473;-56
2023/08/24 00:42:06;;;;;;;4.65;3.03;;;28.20;71.50;;;;;;5065201;28;20017;-56
2023/08/24 00:44:32;;;;;;;3.85;3.40;;;28.20;71.50;;;;;;5061179;28;20040;-56
2023/08/24 00:46:58;;;;;;;3.50;3.20;;;28.20;71.60;;;;;;5065553;28;20029;-56
2023/08/24 00:49:25;;;;;;;3.65;2.88;;;28.20;71.70;;;;;;5047358;28;20044;-56
2023/08/24 00:51:50;;;;;;;3.95;3.20;;;28.10;71.80;;;;;;5046226;28;20036;-56
2023/08/24 00:54:16;;;;;;;5.65;3.08;;;28.10;71.80;;;;;;5063845;28;20035;-56
2023/08/24 00:56:42;;;;;;;4.75;2.92;;;28.10;72.00;;;;;;5030840;28;20021;-56
2023/08/24 00:59:07;;;;;;;5.18;3.20;;;28.10;72.00;;;;;;5062914;28;20041;-56
2023/08/24 01:01:33;;;;;;;5.28;3.20;;;28.10;72.10;;;;;;5045083;28;20024;-56
2023/08/24 01:03:58;;;;;;;5.32;2.90;;;28.00;72.10;;;;;;5061331;28;20040;-56
2023/08/24 01:06:24;;;;;;;5.63;3.00;;;28.00;72.30;;;;;;5047554;28;20397;-55
2023/08/24 01:08:50;;;;;;;4.97;3.50;;;28.00;72.40;;;;;;5065355;28;20037;-56
2023/08/24 01:11:41;;;;;;;4.70;3.05;;;28.00;72.50;;;;;;5054407;28;20040;-56
2023/08/24 01:14:17;;;;;;;5.70;3.20;;;28.00;72.60;;;;;;5027060;28;20061;-56
2023/08/24 01:16:44;;;;;;;7.07;3.20;;;28.00;72.70;;;;;;5044090;28;20034;-56
2023/08/24 01:19:42;;;;;;;4.93;3.25;;;28.00;72.70;;;;;;5043681;28;20069;-56
2023/08/24 01:22:15;;;;;;;4.20;3.40;;;27.90;72.80;;;;;;5055273;28;20037;-56
2023/08/24 01:24:45;;;;;;;9.00;3.50;;;27.90;72.90;;;;;;5047108;28;20033;-56
2023/08/24 01:27:11;;;;;;;7.90;3.42;;;27.90;73.00;;;;;;5043600;28;20032;-56
2023/08/24 01:29:38;;;;;;;5.40;3.40;;;27.80;73.10;;;;;;5044935;28;20482;-56
2023/08/24 01:32:04;;;;;;;4.88;3.35;;;27.80;73.10;;;;;;5063569;28;20043;-56
2023/08/24 01:34:29;;;;;;;4.75;3.00;;;27.70;73.10;;;;;;5064584;28;20044;-56
2023/08/24 01:36:55;;;;;;;4.40;3.15;;;27.70;73.20;;;;;;5063323;28;20048;-56
2023/08/24 01:39:33;;;;;;;6.55;3.13;;;27.70;73.30;;;;;;5046857;28;20083;-55
2023/08/24 01:42:00;;;;;;;6.03;3.20;;;27.70;73.30;;;;;;5023487;28;20025;-56
2023/08/24 01:44:26;;;;;;;4.18;2.92;;;27.70;73.40;;;;;;5046753;28;20032;-56
2023/08/24 01:46:52;;;;;;;4.95;3.00;;;27.60;73.40;;;;;;5046847;28;20031;-56
2023/08/24 01:49:18;;;;;;;6.38;3.17;;;27.60;73.40;;;;;;5045498;28;20083;-56
2023/08/24 01:51:43;;;;;;;5.35;3.50;;;27.60;73.40;;;;;;5063077;28;20025;-56
2023/08/24 01:54:09;;;;;;;4.05;3.03;;;27.60;73.40;;;;;;5046485;28;20029;-56
2023/08/24 01:56:35;;;;;;;8.50;3.00;;;27.60;73.50;;;;;;5063034;28;20028;-56
2023/08/24 01:59:00;;;;;;;8.40;3.38;;;27.60;73.50;;;;;;5063040;28;20036;-56
2023/08/24 02:01:26;;;;;;;4.78;3.30;;;27.50;73.50;;;;;;5046769;28;20044;-56
2023/08/24 02:03:51;;;;;;;4.07;2.92;;;27.50;73.60;;;;;;5064532;28;20021;-56
2023/08/24 02:06:17;;;;;;;3.95;2.97;;;27.50;73.80;;;;;;5063152;28;20028;-56
2023/08/24 02:08:44;;;;;;;5.93;3.25;;;27.40;73.70;;;;;;5063033;28;20040;-56
2023/08/24 02:11:10;;;;;;;4.72;3.05;;;27.40;73.60;;;;;;5068467;28;20085;-56
2023/08/24 02:13:35;;;;;;;3.50;3.10;;;27.40;73.60;;;;;;5050317;28;20048;-56
2023/08/24 02:16:02;;;;;;;4.60;3.03;;;27.40;73.60;;;;;;5066974;28;20036;-56
2023/08/24 02:18:28;;;;;;;3.97;2.75;;;27.40;73.70;;;;;;5065998;28;20124;-56
2023/08/24 02:20:53;;;;;;;5.07;3.10;;;27.30;73.70;;;;;;5066859;28;20078;-56
2023/08/24 02:23:19;;;;;;;4.90;3.42;;;27.30;73.80;;;;;;5066645;28;20037;-56
2023/08/24 02:25:44;;;;;;;4.50;3.40;;;27.30;73.90;;;;;;5066749;28;20032;-56
2023/08/24 02:28:10;;;;;;;5.40;3.33;;;27.30;74.00;;;;;;5066971;28;20601;-56
2023/08/24 02:30:39;;;;;;;4.53;3.90;;;27.30;74.00;;;;;;5068160;28;20081;-56
2023/08/24 02:33:05;;;;;;;6.63;4.00;;;27.30;74.10;;;;;;5066646;28;20524;-56
2023/08/24 02:35:30;;;;;;;4.53;3.80;;;27.20;74.10;;;;;;5068427;28;20025;-56
2023/08/24 02:37:57;;;;;;;4.75;3.78;;;27.20;74.20;;;;;;5048129;28;20045;-56
2023/08/24 02:40:22;;;;;;;5.18;3.92;;;27.20;74.20;;;;;;5056471;28;20085;-56
2023/08/24 02:42:48;;;;;;;7.20;3.92;;;27.10;74.30;;;;;;5047881;28;20060;-56
2023/08/24 02:45:13;;;;;;;6.47;4.20;;;27.10;74.40;;;;;;5046464;28;20461;-56
2023/08/24 02:47:39;;;;;;;7.13;4.18;;;27.10;74.50;;;;;;5059755;28;20612;-56
2023/08/24 02:50:06;;;;;;;6.53;3.60;;;27.10;74.60;;;;;;5067636;28;20503;-56
2023/08/24 02:52:32;;;;;;;5.38;3.40;;;27.10;74.70;;;;;;5067522;28;20045;-56
2023/08/24 02:54:58;;;;;;;5.93;3.50;;;27.10;74.80;;;;;;5067654;28;20029;-56
2023/08/24 02:57:23;;;;;;;5.93;3.70;;;27.00;74.70;;;;;;5047478;28;20029;-56
2023/08/24 02:59:49;;;;;;;5.28;3.55;;;27.00;74.90;;;;;;5048040;28;20101;-56
2023/08/24 03:02:14;;;;;;;7.15;3.80;;;27.00;75.00;;;;;;5065221;28;20028;-56
2023/08/24 03:04:40;;;;;;;6.63;3.58;;;27.00;75.10;;;;;;5067365;28;20039;-56
2023/08/24 03:07:07;;;;;;;10.25;4.13;;;27.00;75.10;;;;;;5065074;28;20021;-56
2023/08/24 03:09:34;;;;;;;4.40;3.55;;;26.90;75.20;;;;;;5067593;28;20037;-56
2023/08/24 03:12:00;;;;;;;4.05;3.63;;;26.90;75.30;;;;;;5065710;28;20106;-55
2023/08/24 03:14:25;;;;;;;8.65;4.32;;;26.90;75.40;;;;;;5052927;28;20033;-56
2023/08/24 03:16:51;;;;;;;8.43;4.07;;;26.90;75.50;;;;;;5049427;28;20032;-56
2023/08/24 03:19:17;;;;;;;5.50;4.07;;;26.90;75.60;;;;;;5066188;28;20055;-56
2023/08/24 03:21:43;;;;;;;8.13;4.15;;;26.80;75.60;;;;;;5064832;28;20116;-56
2023/08/24 03:24:09;;;;;;;8.45;4.50;;;26.90;75.80;;;;;;5065656;28;20465;-56
2023/08/24 03:26:34;;;;;;;8.45;4.35;;;26.80;75.80;;;;;;5065468;28;20084;-56
2023/08/24 03:29:00;;;;;;;6.22;3.97;;;26.80;75.90;;;;;;5066147;28;20045;-56
2023/08/24 03:31:26;;;;;;;14.32;4.53;;;26.80;75.90;;;;;;5065873;28;20025;-56
2023/08/24 03:33:52;;;;;;;9.77;4.75;;;26.80;76.10;;;;;;5067254;28;20068;-56
2023/08/24 03:36:18;;;;;;;9.63;5.32;;;26.80;76.10;;;;;;5067082;28;20090;-56
2023/08/24 03:38:45;;;;;;;20.40;6.40;;;26.70;76.10;;;;;;5066834;28;20120;-56
2023/08/24 03:41:10;;;;;;;35.35;7.70;;;26.70;76.20;;;;;;5065407;28;20033;-56
2023/08/24 03:43:37;;;;;;;28.52;7.28;;;26.70;76.30;;;;;;5066605;28;20036;-56
2023/08/24 03:46:03;;;;;;;27.70;7.13;;;26.70;76.30;;;;;;5048854;28;20036;-56
2023/08/24 03:48:29;;;;;;;25.48;7.10;;;26.70;76.40;;;;;;5048525;28;20029;-56
2023/08/24 03:50:55;;;;;;;32.70;7.82;;;26.70;76.50;;;;;;5065261;28;20127;-56
2023/08/24 03:53:22;;;;;;;30.67;7.72;;;26.60;76.50;;;;;;5064982;28;20079;-56
2023/08/24 03:55:51;;;;;;;22.00;6.97;;;26.60;76.50;;;;;;5065068;28;20028;-56
2023/08/24 03:58:16;;;;;;;34.28;7.32;;;26.60;76.70;;;;;;5046720;28;20384;-56
2023/08/24 04:00:42;;;;;;;32.75;7.35;;;26.60;76.80;;;;;;5064960;28;20091;-56
2023/08/24 04:03:08;;;;;;;22.58;6.70;;;26.60;76.90;;;;;;5066389;28;20040;-56
2023/08/24 04:05:34;;;;;;;49.47;8.35;;;26.60;76.90;;;;;;5063863;28;20021;-56
2023/08/24 04:08:02;;;;;;;30.65;7.50;;;26.60;76.90;;;;;;5065986;28;20055;-56
2023/08/24 04:10:29;;;;;;;26.98;7.22;;;26.60;77.00;;;;;;5048771;28;20052;-56
2023/08/24 04:12:54;;;;;;;28.73;8.13;;;26.60;77.10;;;;;;5064573;28;20036;-56
2023/08/24 04:15:20;;;;;;;32.58;7.32;;;26.50;77.70;;;;;;5064294;28;20021;-56
2023/08/24 04:17:45;;;;;;;23.98;7.03;;;26.50;77.10;;;;;;5064196;28;20106;-56
2023/08/24 04:20:11;;;;;;;31.63;8.00;;;26.50;77.30;;;;;;5047740;28;20036;-56
2023/08/24 04:22:37;;;;;;;26.40;7.53;;;26.50;77.30;;;;;;5064536;28;20029;-56
2023/08/24 04:25:03;;;;;;;31.02;7.60;;;26.50;77.30;;;;;;5064369;28;20044;-55
2023/08/24 04:27:28;;;;;;;24.88;7.03;;;26.40;77.30;;;;;;5065612;28;20021;-56
2023/08/24 04:29:54;;;;;;;27.13;7.25;;;26.40;77.40;;;;;;5064021;28;20040;-56
2023/08/24 04:32:20;;;;;;;22.48;7.43;;;26.40;78.20;;;;;;5064216;28;20049;-56
2023/08/24 04:34:45;;;;;;;21.02;6.80;;;26.40;77.60;;;;;;5064430;28;20021;-56
2023/08/24 04:37:11;;;;;;;27.33;7.00;;;26.40;77.80;;;;;;5065750;28;20048;-57
2023/08/24 04:39:37;;;;;;;26.35;6.80;;;26.30;77.80;;;;;;5064262;28;20029;-56
2023/08/24 04:42:03;;;;;;;24.58;6.95;;;26.30;77.90;;;;;;5065655;28;20044;-56
2023/08/24 04:44:28;;;;;;;21.92;6.10;;;26.30;78.60;;;;;;5064128;28;20466;-56
2023/08/24 04:46:54;;;;;;;23.77;6.50;;;26.20;78.00;;;;;;5065410;28;20029;-55
2023/08/24 04:49:19;;;;;;;25.65;6.65;;;26.30;78.20;;;;;;5065674;28;20036;-56
2023/08/24 04:51:45;;;;;;;23.48;7.80;;;26.20;78.20;;;;;;5014112;28;20033;-56
2023/08/24 04:54:10;;;;;;;19.38;7.03;;;26.20;78.10;;;;;;5043903;28;20040;-56
2023/08/24 04:56:36;;;;;;;33.08;7.97;;;26.30;78.30;;;;;;5044854;28;20029;-57
2023/08/24 04:59:02;;;;;;;50.22;9.85;;;26.20;78.30;;;;;;5053694;28;20028;-55
2023/08/24 05:01:30;;;;;;;32.67;8.40;;;26.20;78.50;;;;;;5047163;28;20370;-56
2023/08/24 05:03:55;;;;;;;118.57;14.20;;;26.20;78.60;;;;;;5050777;28;20025;-56
2023/08/24 05:06:21;;;;;;;180.43;21.70;;;26.20;78.80;;;;;;5042802;28;20029;-56
2023/08/24 05:08:46;;;;;;;222.80;23.48;;;26.20;78.90;;;;;;5043286;28;20036;-57
2023/08/24 05:11:26;;;;;;;129.10;16.52;;;26.20;79.00;;;;;;5045082;28;20052;-56
2023/08/24 05:13:52;;;;;;;145.45;19.67;;;26.10;79.50;;;;;;5042962;28;20047;-56
2023/08/24 05:16:17;;;;;;;142.90;18.45;;;26.20;79.40;;;;;;5052198;28;20115;-57
2023/08/24 05:18:43;;;;;;;287.83;34.15;;;26.10;79.40;;;;;;5063925;28;20491;-56
2023/08/24 05:21:08;;;;;;;270.55;40.15;;;26.10;79.50;;;;;;5064731;28;20025;-56
2023/08/24 05:23:34;;;;;;;274.90;42.13;;;26.10;79.50;;;;;;5043960;28;20033;-56
2023/08/24 05:26:01;;;;;;;430.42;62.15;;;26.20;80.10;;;;;;5053284;28;20461;-56
2023/08/24 05:28:27;;;;;;;537.15;82.72;;;26.20;80.90;;;;;;5043668;28;20040;-56
2023/08/24 05:30:53;;;;;;;322.05;40.97;;;26.20;80.40;;;;;;5044797;28;20048;-56
2023/08/24 05:33:22;;;;;;;189.63;27.75;;;26.20;80.00;;;;;;5026722;28;20359;-56
2023/08/24 05:35:49;;;;;;;186.63;27.38;;;26.20;79.80;;;;;;5041759;28;20052;-56
2023/08/24 05:38:14;;;;;;;224.98;30.17;;;26.20;79.70;;;;;;5059873;28;20127;-56
2023/08/24 05:40:42;;;;;;;240.98;30.48;;;26.10;79.70;;;;;;5062982;28;20029;-56
2023/08/24 05:43:08;;;;;;;207.98;27.88;;;26.10;79.80;;;;;;5062206;28;20025;-56
2023/08/24 05:45:33;;;;;;;171.73;24.85;;;26.10;79.90;;;;;;5052461;28;20119;-56
2023/08/24 05:47:59;;;;;;;149.30;21.88;;;26.10;79.90;;;;;;5043693;28;20415;-56
2023/08/24 05:50:25;;;;;;;136.60;20.75;;;26.10;79.70;;;;;;5059268;28;20051;-56
2023/08/24 05:52:50;;;;;;;144.00;20.23;;;26.10;79.70;;;;;;5065167;28;20031;-56
2023/08/24 05:55:16;;;;;;;120.22;16.13;;;26.10;79.70;;;;;;5057321;28;20053;-56
2023/08/24 05:57:41;;;;;;;90.13;15.60;;;26.10;79.60;;;;;;5045576;28;20021;-56
2023/08/24 06:00:10;;;;;;;102.88;14.95;;;26.10;79.50;;;;;;5051605;28;20028;-56
2023/08/24 06:02:36;;;;;;;67.88;13.15;;;26.10;79.50;;;;;;5064616;28;20025;-56
2023/08/24 06:05:02;;;;;;;76.90;13.20;;;26.10;79.50;;;;;;5059311;28;20074;-56
2023/08/24 06:07:28;;;;;;;100.90;16.27;;;26.10;80.20;;;;;;5041909;28;20021;-56
2023/08/24 06:09:54;;;;;;;92.85;13.75;;;26.10;79.60;;;;;;5042900;28;20045;-56
2023/08/24 06:12:19;;;;;;;105.10;15.02;;;26.10;79.70;;;;;;5042277;28;20128;-56
2023/08/24 06:14:45;;;;;;;120.22;15.60;;;26.10;79.70;;;;;;5050878;28;20029;-56
2023/08/24 06:17:10;;;;;;;69.07;12.80;;;26.10;79.80;;;;;;5062314;28;20017;-57
2023/08/24 06:19:36;;;;;;;88.00;13.85;;;26.10;79.80;;;;;;5042457;28;20042;-56
2023/08/24 06:22:02;;;;;;;73.20;13.30;;;26.10;79.80;;;;;;5042593;28;20025;-56
2023/08/24 06:24:27;;;;;;;61.35;12.15;;;26.10;79.80;;;;;;5044261;28;20051;-57
2023/08/24 06:26:53;;;;;;;65.82;11.65;;;26.10;79.80;;;;;;5041963;28;20115;-57
2023/08/24 06:29:18;;;;;;;42.92;9.88;;;26.10;79.70;;;;;;5042939;28;20055;-56
2023/08/24 06:31:44;;;;;;;43.38;8.70;;;26.10;79.70;;;;;;5043463;28;20037;-56
2023/08/24 06:34:09;;;;;;;38.88;9.07;;;26.10;79.80;;;;;;5047729;28;20038;-56
2023/08/24 06:36:35;;;;;;;33.03;8.07;;;26.10;79.70;;;;;;5044140;28;20030;-56
2023/08/24 06:39:00;;;;;;;46.92;7.80;;;26.10;79.80;;;;;;5042226;28;20072;-56
2023/08/24 06:41:26;;;;;;;49.83;8.88;;;26.10;79.90;;;;;;5044625;28;20052;-57
2023/08/24 06:43:53;;;;;;;57.17;10.40;;;26.10;80.00;;;;;;5042106;28;20535;-56
2023/08/24 06:46:19;;;;;;;51.70;8.32;;;26.10;79.90;;;;;;5054634;28;20069;-57
2023/08/24 06:48:45;;;;;;;44.22;8.88;;;26.10;79.80;;;;;;5044976;28;20321;-57
2023/08/24 06:51:11;;;;;;;50.70;7.70;;;26.10;80.00;;;;;;5062555;28;20025;-57
2023/08/24 06:53:37;;;;;;;121.00;20.15;;;26.10;79.90;;;;;;5064133;28;20464;-57
2023/08/24 06:56:03;;;;;;;63.85;11.38;;;26.10;79.90;;;;;;5050334;28;20033;-56
2023/08/24 06:58:29;;;;;;;78.97;12.25;;;26.10;79.80;;;;;;5045949;28;20049;-57
2023/08/24 07:00:55;;;;;;;143.77;21.90;;;26.10;79.90;;;;;;5045303;28;20033;-57
2023/08/24 07:03:21;;;;;;;187.23;22.60;;;26.10;80.00;;;;;;5045981;28;20030;-56
2023/08/24 07:05:46;;;;;;;139.27;20.02;;;26.10;80.10;;;;;;5045945;28;20108;-57
2023/08/24 07:08:13;;;;;;;130.98;17.35;;;26.10;80.20;;;;;;5044615;28;20056;-57
2023/08/24 07:10:38;;;;;;;90.45;12.70;;;26.10;80.10;;;;;;5044649;28;20478;-57
2023/08/24 07:13:06;;;;;;;81.00;14.43;;;26.10;80.00;;;;;;5029566;28;20037;-57
2023/08/24 07:15:34;;;;;;;95.20;14.15;;;26.20;80.30;;;;;;5046332;28;20528;-56
2023/08/24 07:18:00;;;;;;;129.57;17.60;;;26.20;80.50;;;;;;5044656;28;20041;-56
2023/08/24 07:20:26;;;;;;;127.85;17.02;;;26.20;80.30;;;;;;5043989;28;20033;-57
2023/08/24 07:22:53;;;;;;;128.02;16.88;;;26.20;80.40;;;;;;5032122;28;20405;-56
2023/08/24 07:25:20;;;;;;;161.27;23.83;;;26.20;81.10;;;;;;5045998;28;20018;-56
2023/08/24 07:27:45;;;;;;;81.45;14.90;;;26.20;80.50;;;;;;5045165;28;20036;-57
2023/08/24 07:30:11;;;;;;;175.20;25.83;;;26.30;80.90;;;;;;5043813;28;20021;-57
2023/08/24 07:32:37;;;;;;;164.40;22.83;;;26.20;80.30;;;;;;5045180;28;20117;-57
2023/08/24 07:35:03;;;;;;;133.25;18.48;;;26.30;80.60;;;;;;5044819;28;20462;-56
2023/08/24 07:37:29;;;;;;;106.07;16.73;;;26.30;81.00;;;;;;5043904;28;20024;-57
2023/08/24 07:39:54;;;;;;;81.32;13.30;;;26.30;81.00;;;;;;5045017;28;20049;-56
2023/08/24 07:42:20;;;;;;;82.03;13.20;;;26.30;81.00;;;;;;5046665;28;20045;-57
2023/08/24 07:44:45;;;;;;;78.43;13.23;;;26.20;80.90;;;;;;5059043;28;20041;-57
2023/08/24 07:47:11;;;;;;;116.45;15.82;;;26.30;81.10;;;;;;5029304;28;20026;-57
2023/08/24 07:49:37;;;;;;;79.40;13.20;;;26.20;81.40;;;;;;5044431;28;20032;-56
2023/08/24 07:52:02;;;;;;;68.65;11.32;;;26.20;81.70;;;;;;5044772;28;20034;-57
2023/08/24 07:54:28;;;;;;;73.53;12.88;;;26.20;81.60;;;;;;5040758;28;20029;-56
2023/08/24 07:56:53;;;;;;;67.80;12.70;;;26.20;82.10;;;;;;5042132;28;20025;-57
2023/08/24 07:59:19;;;;;;;67.25;11.77;;;26.20;81.90;;;;;;5045148;28;20241;-57
2023/08/24 08:01:44;;;;;;;66.45;11.70;;;26.30;81.70;;;;;;5044220;28;20050;-56
2023/08/24 08:04:10;;;;;;;55.53;10.95;;;26.30;81.30;;;;;;5059188;28;20025;-57
2023/08/24 08:06:36;;;;;;;63.42;9.88;;;26.30;81.10;;;;;;5043760;28;20032;-57
2023/08/24 08:09:01;;;;;;;42.95;9.85;;;26.30;81.10;;;;;;5049403;28;20029;-57
2023/08/24 08:11:27;;;;;;;34.97;9.23;;;26.30;81.10;;;;;;5047855;28;20029;-57
2023/08/24 08:13:52;;;;;;;39.30;9.77;;;26.30;81.10;;;;;;5065997;28;20076;-57
2023/08/24 08:16:18;;;;;;;43.38;9.20;;;26.30;81.00;;;;;;5046580;28;20029;-57
2023/08/24 08:18:43;;;;;;;44.38;9.38;;;26.40;81.00;;;;;;5043015;28;20041;-57
2023/08/24 08:21:19;;;;;;;71.07;10.85;;;26.40;80.90;;;;;;5044192;28;20029;-56
2023/08/24 08:23:45;;;;;;;53.03;10.20;;;26.40;81.20;;;;;;5044144;28;20037;-57
2023/08/24 08:26:11;;;;;;;50.95;11.18;;;26.40;80.90;;;;;;5043245;28;20031;-56
2023/08/24 08:28:36;;;;;;;68.18;12.70;;;26.40;80.90;;;;;;5045956;28;20057;-56
2023/08/24 08:31:03;;;;;;;42.75;9.82;;;26.40;81.20;;;;;;5044816;28;20245;-57
2023/08/24 08:33:29;;;;;;;65.15;11.70;;;26.50;81.00;;;;;;5045981;28;20026;-58
2023/08/24 08:35:54;;;;;;;81.68;13.68;;;26.50;81.00;;;;;;5043832;28;20366;-56
2023/08/24 08:38:25;;;;;;;92.78;14.60;;;26.50;81.70;;;;;;5027192;28;20045;-56
2023/08/24 08:40:51;;;;;;;80.57;13.07;;;26.50;81.80;;;;;;5045786;28;20056;-56
2023/08/24 08:43:16;;;;;;;62.45;12.00;;;26.50;82.70;;;;;;5055520;28;20029;-57
2023/08/24 08:45:42;;;;;;;54.88;10.85;;;26.50;81.90;;;;;;5041430;28;20228;-57
2023/08/24 08:48:07;;;;;;;68.90;11.18;;;26.50;82.20;;;;;;5031881;28;20030;-57
2023/08/24 08:50:33;;;;;;;55.38;11.43;;;26.50;82.20;;;;;;5026587;28;20464;-57
2023/08/24 08:52:59;;;;;;;67.20;11.48;;;26.50;82.20;;;;;;5027471;28;20092;-57
2023/08/24 08:55:24;;;;;;;53.03;10.90;;;26.50;82.40;;;;;;5026649;28;20171;-56
2023/08/24 08:57:50;;;;;;;52.90;9.90;;;26.50;82.20;;;;;;5043094;28;20508;-57
2023/08/24 09:00:16;;;;;;;62.17;11.50;;;26.60;82.30;;;;;;5043386;28;20147;-56
2023/08/24 09:02:45;;;;;;;53.00;10.75;;;26.60;82.40;;;;;;5042224;28;20025;-56
2023/08/24 09:05:12;;;;;;;61.97;10.63;;;26.60;82.40;;;;;;5043566;28;20071;-56
2023/08/24 09:07:39;;;;;;;50.10;10.07;;;26.60;82.90;;;;;;5043020;28;20030;-56
2023/08/24 09:10:07;;;;;;;63.92;11.25;;;26.70;82.10;;;;;;5042894;28;20025;-56
2023/08/24 09:12:35;;;;;;;63.03;11.10;;;26.70;82.40;;;;;;5043597;28;20029;-56
2023/08/24 09:15:06;;;;;;;60.33;11.05;;;26.70;82.50;;;;;;5045401;28;20041;-56
2023/08/24 09:17:34;;;;;;;44.45;9.30;;;26.70;82.30;;;;;;5044366;28;20018;-56
2023/08/24 09:20:09;;;;;;;56.80;10.45;;;26.80;82.10;;;;;;5025534;28;20030;-56
2023/08/24 09:22:36;;;;;;;57.05;9.68;;;26.80;82.20;;;;;;5042980;28;20026;-56
2023/08/24 09:25:03;;;;;;;57.75;10.95;;;26.80;82.00;;;;;;5044792;28;20034;-56
2023/08/24 09:27:29;;;;;;;41.25;10.13;;;26.90;81.90;;;;;;5042640;28;20028;-56
2023/08/24 09:29:54;;;;;;;40.22;9.07;;;26.90;82.10;;;;;;5042330;28;20116;-56
2023/08/24 09:32:30;;;;;;;37.85;8.63;;;26.90;81.90;;;;;;5044240;28;20032;-56
2023/08/24 09:34:56;;;;;;;43.67;9.68;;;27.00;81.80;;;;;;5027821;28;20051;-56
2023/08/24 09:37:21;;;;;;;35.15;8.20;;;27.00;81.70;;;;;;5042432;28;20104;-56
2023/08/24 09:39:47;;;;;;;31.77;7.95;;;27.00;81.60;;;;;;5042251;28;20408;-56
2023/08/24 09:42:13;;;;;;;27.70;8.05;;;27.00;81.50;;;;;;5044583;28;20037;-56
2023/08/24 09:44:44;;;;;;;38.75;9.25;;;27.10;81.60;;;;;;5043188;28;20029;-56
2023/08/24 09:47:11;;;;;;;24.30;8.73;;;27.10;81.40;;;;;;5042944;28;20049;-56
2023/08/24 09:49:36;;;;;;;32.10;7.82;;;27.20;81.30;;;;;;5042260;28;20560;-56
2023/08/24 09:52:02;;;;;;;24.75;7.93;;;27.20;81.10;;;;;;5041729;28;20037;-56
2023/08/24 09:54:28;;;;;;;29.10;8.20;;;27.20;81.00;;;;;;5063475;28;20032;-56
2023/08/24 09:56:55;;;;;;;29.08;7.40;;;27.30;81.00;;;;;;5044001;28;20071;-56
2023/08/24 09:59:22;;;;;;;40.08;9.50;;;27.30;80.80;;;;;;5043695;28;20033;-56
2023/08/24 10:01:48;;;;;;;42.55;10.85;;;27.40;80.80;;;;;;5043031;28;20025;-56
2023/08/24 10:04:15;;;;;;;44.15;10.05;;;27.40;80.60;;;;;;5064261;28;20049;-56
2023/08/24 10:06:41;;;;;;;53.80;11.23;;;27.50;80.70;;;;;;5061408;28;20040;-56
2023/08/24 10:09:08;;;;;;;36.25;10.27;;;27.50;80.60;;;;;;5041322;28;20451;-57
2023/08/24 10:11:36;;;;;;;36.92;10.57;;;27.60;80.50;;;;;;5042795;28;20030;-56
2023/08/24 10:14:23;;;;;;;40.92;9.50;;;27.60;80.30;;;;;;5042071;28;20033;-56
2023/08/24 10:16:49;;;;;;;40.60;10.25;;;27.70;80.30;;;;;;5043220;28;20089;-56
2023/08/24 10:19:15;;;;;;;42.65;9.43;;;27.70;80.10;;;;;;5044984;28;20103;-56
2023/08/24 10:21:40;;;;;;;39.83;10.10;;;27.80;80.20;;;;;;5044712;28;20019;-56
2023/08/24 10:24:06;;;;;;;49.67;10.07;;;27.90;80.00;;;;;;5062645;28;20092;-56
2023/08/24 10:26:33;;;;;;;58.05;11.32;;;27.90;80.00;;;;;;5062559;28;20079;-56
2023/08/24 10:28:59;;;;;;;48.42;10.15;;;27.90;79.90;;;;;;5051478;28;20120;-56
2023/08/24 10:31:25;;;;;;;57.22;10.60;;;28.00;79.90;;;;;;5044871;28;20085;-56
2023/08/24 10:33:50;;;;;;;56.00;12.10;;;28.00;79.80;;;;;;5046067;28;20393;-56
2023/08/24 10:36:18;;;;;;;63.40;13.50;;;28.10;79.90;;;;;;5046725;28;20034;-56
2023/08/24 10:38:43;;;;;;;54.42;11.90;;;28.20;79.80;;;;;;5045839;28;20033;-56
2023/08/24 10:41:09;;;;;;;45.13;10.32;;;28.20;79.60;;;;;;5056146;28;20056;-56
2023/08/24 10:43:38;;;;;;;51.85;10.68;;;28.20;79.30;;;;;;5066715;28;20048;-56
2023/08/24 10:46:04;;;;;;;42.35;10.63;;;28.30;79.30;;;;;;5067935;28;20099;-56
2023/08/24 10:48:30;;;;;;;40.05;10.00;;;28.30;79.20;;;;;;5056140;28;20029;-56
2023/08/24 10:51:19;;;;;;;53.63;10.68;;;28.30;79.20;;;;;;5047053;28;20061;-56
2023/08/24 10:53:45;;;;;;;52.50;10.82;;;28.30;79.90;;;;;;5047434;28;20350;-56
2023/08/24 10:56:15;;;;;;;49.30;10.73;;;28.40;79.20;;;;;;5045389;28;20514;-56
2023/08/24 10:58:41;;;;;;;37.00;10.45;;;28.40;79.10;;;;;;5044924;28;20053;-56
2023/08/24 11:01:07;;;;;;;50.25;10.82;;;28.50;78.80;;;;;;5053572;28;20091;-56
2023/08/24 11:03:33;;;;;;;54.05;10.50;;;28.50;78.80;;;;;;5067491;28;20044;-56
2023/08/24 11:05:58;;;;;;;48.83;10.85;;;28.60;78.70;;;;;;5064366;28;20048;-56
2023/08/24 11:08:44;;;;;;;41.38;9.98;;;28.60;78.60;;;;;;5044773;28;20033;-56
2023/08/24 11:11:22;;;;;;;38.72;8.77;;;28.70;78.40;;;;;;5029094;28;20366;-56
2023/08/24 11:14:17;;;;;;;39.25;9.85;;;28.80;78.30;;;;;;5045615;28;20543;-56
2023/08/24 11:16:43;;;;;;;45.60;9.43;;;28.80;78.10;;;;;;5031894;28;20024;-56
2023/08/24 11:19:10;;;;;;;46.38;9.77;;;28.90;78.00;;;;;;5058270;28;20041;-56
2023/08/24 11:21:36;;;;;;;44.65;9.82;;;29.00;78.40;;;;;;5065649;28;20043;-56
2023/08/24 11:24:02;;;;;;;37.83;9.73;;;29.00;77.40;;;;;;5036731;28;20034;-56
2023/08/24 11:26:29;;;;;;;32.25;8.85;;;29.10;77.20;;;;;;5047469;28;20044;-56
2023/08/24 11:28:57;;;;;;;39.75;9.10;;;29.20;77.20;;;;;;5046252;28;20504;-56
2023/08/24 11:31:23;;;;;;;34.30;8.68;;;29.20;76.90;;;;;;5046990;28;20089;-56
2023/08/24 11:33:51;;;;;;;31.90;9.45;;;29.30;76.70;;;;;;5044463;28;20306;-56
2023/08/24 11:36:16;;;;;;;63.22;10.02;;;29.40;76.50;;;;;;5031499;28;20362;-56
2023/08/24 11:38:42;;;;;;;42.33;9.73;;;29.50;76.30;;;;;;5058563;28;20030;-56
2023/08/24 11:41:15;;;;;;;58.97;10.88;;;29.60;76.00;;;;;;5043168;28;20041;-56
2023/08/24 11:43:41;;;;;;;36.28;8.90;;;29.70;75.70;;;;;;5047440;28;20029;-56
2023/08/24 11:46:07;;;;;;;36.55;8.90;;;29.80;75.40;;;;;;5053127;28;20029;-56
2023/08/24 11:48:33;;;;;;;32.65;8.35;;;29.80;75.40;;;;;;5028606;28;20049;-56
2023/08/24 11:50:58;;;;;;;38.65;8.32;;;29.90;75.20;;;;;;5044591;28;20025;-56
2023/08/24 11:53:24;;;;;;;39.25;8.52;;;30.00;74.70;;;;;;5030936;28;20034;-56
2023/08/24 11:55:54;;;;;;;52.75;9.98;;;30.10;74.50;;;;;;5030040;28;20032;-56
2023/08/24 11:58:19;;;;;;;39.58;8.02;;;30.10;74.20;;;;;;5056883;28;20049;-56
2023/08/24 12:00:45;;;;;;;47.80;8.15;;;30.20;73.90;;;;;;5044732;28;20037;-56
2023/08/24 12:03:11;;;;;;;49.85;9.35;;;30.20;73.50;;;;;;5026977;28;20053;-57
2023/08/24 12:05:37;;;;;;;68.22;10.73;;;30.30;73.30;;;;;;5028319;28;20029;-56
2023/08/24 12:08:02;;;;;;;61.60;10.40;;;30.40;73.30;;;;;;5028118;28;20041;-56
2023/08/24 12:10:28;;;;;;;54.05;11.00;;;30.40;73.20;;;;;;5043872;28;20030;-56
2023/08/24 12:13:05;;;;;;;83.45;11.13;;;30.50;73.10;;;;;;5046319;28;20037;-56
2023/08/24 12:15:30;;;;;;;65.30;10.88;;;30.60;73.00;;;;;;5044599;28;20045;-56
2023/08/24 12:17:56;;;;;;;49.03;9.25;;;30.60;72.80;;;;;;5044382;28;20050;-57
2023/08/24 12:20:22;;;;;;;50.03;9.50;;;30.70;72.70;;;;;;5045133;28;20025;-56
2023/08/24 12:22:54;;;;;;;54.35;10.60;;;30.70;72.50;;;;;;5044564;28;20086;-56
2023/08/24 12:25:23;;;;;;;73.15;11.05;;;30.80;72.40;;;;;;5044423;28;20021;-56
2023/08/24 12:27:53;;;;;;;65.03;11.10;;;30.80;72.10;;;;;;5044415;28;20017;-56
2023/08/24 12:30:19;;;;;;;64.75;10.40;;;30.90;72.00;;;;;;5042755;28;20025;-55